sensor_id;sensor_type;location;lat;lon;timestamp;P1;durP1;ratioP1;P2;durP2;ratioP2
71914;SDS011;60387;49.994;14.660;2023-06-22T00:02:30;0.63;;;0.30;;
71914;SDS011;60387;49.994;14.660;2023-06-22T00:05:04;0.20;;;0.20;;
71914;SDS011;60387;49.994;14.660;2023-06-22T00:07:37;0.30;;;0.20;;
71914;SDS011;60387;49.994;14.660;2023-06-22T00:10:11;0.20;;;0.10;;
71914;SDS011;60387;49.994;14.660;2023-06-22T00:12:44;0.20;;;0.10;;
71914;SDS011;60387;49.994;14.660;2023-06-22T00:15:17;0.77;;;0.33;;
71914;SDS011;60387;49.994;14.660;2023-06-22T00:17:50;0.30;;;0.20;;
71914;SDS011;60387;49.994;14.660;2023-06-22T00:20:24;0.30;;;0.20;;
71914;SDS011;60387;49.994;14.660;2023-06-22T00:22:58;0.25;;;0.20;;
71914;SDS011;60387;49.994;14.660;2023-06-22T00:25:32;0.20;;;0.13;;
71914;SDS011;60387;49.994;14.660;2023-06-22T00:28:06;0.20;;;0.20;;
71914;SDS011;60387;49.994;14.660;2023-06-22T00:30:39;0.50;;;0.22;;
71914;SDS011;60387;49.994;14.660;2023-06-22T00:33:13;0.20;;;0.13;;
71914;SDS011;60387;49.994;14.660;2023-06-22T00:35:46;0.20;;;0.13;;
71914;SDS011;60387;49.994;14.660;2023-06-22T00:38:19;0.20;;;0.17;;
71914;SDS011;60387;49.994;14.660;2023-06-22T00:40:53;0.20;;;0.20;;
71914;SDS011;60387;49.994;14.660;2023-06-22T00:43:26;0.20;;;0.20;;
71914;SDS011;60387;49.994;14.660;2023-06-22T00:45:59;0.30;;;0.20;;
71914;SDS011;60387;49.994;14.660;2023-06-22T00:48:33;0.93;;;0.50;;
71914;SDS011;60387;49.994;14.660;2023-06-22T00:51:06;0.60;;;0.30;;
71914;SDS011;60387;49.994;14.660;2023-06-22T00:53:40;0.30;;;0.20;;
71914;SDS011;60387;49.994;14.660;2023-06-22T00:56:14;0.20;;;0.10;;
71914;SDS011;60387;49.994;14.660;2023-06-22T00:58:47;0.20;;;0.10;;
71914;SDS011;60387;49.994;14.660;2023-06-22T01:01:21;0.30;;;0.20;;
71914;SDS011;60387;49.994;14.660;2023-06-22T01:03:54;0.20;;;0.10;;
71914;SDS011;60387;49.994;14.660;2023-06-22T01:06:29;0.20;;;0.10;;
71914;SDS011;60387;49.994;14.660;2023-06-22T01:09:12;0.20;;;0.20;;
71914;SDS011;60387;49.994;14.660;2023-06-22T01:11:51;0.20;;;0.10;;
71914;SDS011;60387;49.994;14.660;2023-06-22T01:14:29;0.32;;;0.20;;
71914;SDS011;60387;49.994;14.660;2023-06-22T01:17:26;0.32;;;0.20;;
71914;SDS011;60387;49.994;14.660;2023-06-22T01:20:03;0.20;;;0.10;;
71914;SDS011;60387;49.994;14.660;2023-06-22T01:25:46;0.20;;;0.10;;
71914;SDS011;60387;49.994;14.660;2023-06-22T01:28:37;0.15;;;0.10;;
71914;SDS011;60387;49.994;14.660;2023-06-22T01:31:27;0.10;;;0.10;;
71914;SDS011;60387;49.994;14.660;2023-06-22T01:34:02;3.80;;;0.43;;
71914;SDS011;60387;49.994;14.660;2023-06-22T01:36:38;0.10;;;0.10;;
71914;SDS011;60387;49.994;14.660;2023-06-22T01:39:12;0.10;;;0.10;;
71914;SDS011;60387;49.994;14.660;2023-06-22T01:41:47;0.30;;;0.20;;
71914;SDS011;60387;49.994;14.660;2023-06-22T01:44:20;0.90;;;0.22;;
71914;SDS011;60387;49.994;14.660;2023-06-22T01:46:54;0.20;;;0.10;;
71914;SDS011;60387;49.994;14.660;2023-06-22T01:49:28;0.38;;;0.25;;
71914;SDS011;60387;49.994;14.660;2023-06-22T01:52:02;0.30;;;0.20;;
71914;SDS011;60387;49.994;14.660;2023-06-22T01:54:37;0.40;;;0.20;;
71914;SDS011;60387;49.994;14.660;2023-06-22T01:57:11;0.23;;;0.20;;
71914;SDS011;60387;49.994;14.660;2023-06-22T01:59:49;1.48;;;0.40;;
71914;SDS011;60387;49.994;14.660;2023-06-22T02:02:40;0.20;;;0.15;;
71914;SDS011;60387;49.994;14.660;2023-06-22T02:05:26;1.27;;;0.97;;
71914;SDS011;60387;49.994;14.660;2023-06-22T02:10:40;0.23;;;0.20;;
71914;SDS011;60387;49.994;14.660;2023-06-22T02:13:15;0.60;;;0.43;;
71914;SDS011;60387;49.994;14.660;2023-06-22T02:15:49;0.20;;;0.20;;
71914;SDS011;60387;49.994;14.660;2023-06-22T02:18:23;0.60;;;0.30;;
71914;SDS011;60387;49.994;14.660;2023-06-22T02:20:57;0.63;;;0.63;;
71914;SDS011;60387;49.994;14.660;2023-06-22T02:23:30;0.17;;;0.10;;
71914;SDS011;60387;49.994;14.660;2023-06-22T02:26:03;0.33;;;0.23;;
71914;SDS011;60387;49.994;14.660;2023-06-22T02:28:37;0.13;;;0.10;;
71914;SDS011;60387;49.994;14.660;2023-06-22T02:31:10;1.40;;;0.40;;
71914;SDS011;60387;49.994;14.660;2023-06-22T02:33:43;0.30;;;0.20;;
71914;SDS011;60387;49.994;14.660;2023-06-22T02:36:16;0.30;;;0.20;;
71914;SDS011;60387;49.994;14.660;2023-06-22T02:38:50;0.20;;;0.20;;
71914;SDS011;60387;49.994;14.660;2023-06-22T02:41:23;0.20;;;0.20;;
71914;SDS011;60387;49.994;14.660;2023-06-22T02:43:59;0.40;;;0.22;;
71914;SDS011;60387;49.994;14.660;2023-06-22T02:46:33;0.10;;;0.10;;
71914;SDS011;60387;49.994;14.660;2023-06-22T02:49:06;0.30;;;0.20;;
71914;SDS011;60387;49.994;14.660;2023-06-22T02:51:41;0.20;;;0.10;;
71914;SDS011;60387;49.994;14.660;2023-06-22T02:54:17;0.20;;;0.20;;
71914;SDS011;60387;49.994;14.660;2023-06-22T02:56:50;0.20;;;0.10;;
71914;SDS011;60387;49.994;14.660;2023-06-22T02:59:24;0.20;;;0.20;;
71914;SDS011;60387;49.994;14.660;2023-06-22T03:01:57;0.20;;;0.10;;
71914;SDS011;60387;49.994;14.660;2023-06-22T03:04:30;0.40;;;0.20;;
71914;SDS011;60387;49.994;14.660;2023-06-22T03:07:04;0.20;;;0.10;;
71914;SDS011;60387;49.994;14.660;2023-06-22T03:09:37;0.20;;;0.10;;
71914;SDS011;60387;49.994;14.660;2023-06-22T03:12:10;0.20;;;0.10;;
71914;SDS011;60387;49.994;14.660;2023-06-22T03:14:44;0.10;;;0.10;;
71914;SDS011;60387;49.994;14.660;2023-06-22T03:17:17;0.30;;;0.20;;
71914;SDS011;60387;49.994;14.660;2023-06-22T03:19:50;0.43;;;0.13;;
71914;SDS011;60387;49.994;14.660;2023-06-22T03:22:24;0.30;;;0.20;;
71914;SDS011;60387;49.994;14.660;2023-06-22T03:24:57;0.50;;;0.30;;
71914;SDS011;60387;49.994;14.660;2023-06-22T03:27:30;0.40;;;0.40;;
71914;SDS011;60387;49.994;14.660;2023-06-22T03:30:04;1.70;;;0.30;;
71914;SDS011;60387;49.994;14.660;2023-06-22T03:32:38;0.20;;;0.10;;
71914;SDS011;60387;49.994;14.660;2023-06-22T03:35:12;0.20;;;0.20;;
71914;SDS011;60387;49.994;14.660;2023-06-22T03:37:45;0.20;;;0.10;;
71914;SDS011;60387;49.994;14.660;2023-06-22T03:40:18;0.30;;;0.30;;
71914;SDS011;60387;49.994;14.660;2023-06-22T03:42:52;0.40;;;0.30;;
71914;SDS011;60387;49.994;14.660;2023-06-22T03:45:25;0.27;;;0.17;;
71914;SDS011;60387;49.994;14.660;2023-06-22T03:47:59;0.20;;;0.10;;
71914;SDS011;60387;49.994;14.660;2023-06-22T03:50:33;0.20;;;0.10;;
71914;SDS011;60387;49.994;14.660;2023-06-22T03:53:06;0.57;;;0.37;;
71914;SDS011;60387;49.994;14.660;2023-06-22T03:55:49;0.20;;;0.20;;
71914;SDS011;60387;49.994;14.660;2023-06-22T03:58:24;0.52;;;0.20;;
71914;SDS011;60387;49.994;14.660;2023-06-22T04:00:57;0.50;;;0.30;;
71914;SDS011;60387;49.994;14.660;2023-06-22T04:03:30;0.33;;;0.20;;
71914;SDS011;60387;49.994;14.660;2023-06-22T04:06:03;0.50;;;0.30;;
71914;SDS011;60387;49.994;14.660;2023-06-22T04:08:37;0.30;;;0.20;;
71914;SDS011;60387;49.994;14.660;2023-06-22T04:11:10;0.50;;;0.33;;
71914;SDS011;60387;49.994;14.660;2023-06-22T04:13:43;0.40;;;0.30;;
71914;SDS011;60387;49.994;14.660;2023-06-22T04:16:17;0.50;;;0.30;;
71914;SDS011;60387;49.994;14.660;2023-06-22T04:18:50;0.40;;;0.30;;
71914;SDS011;60387;49.994;14.660;2023-06-22T04:21:23;0.60;;;0.43;;
71914;SDS011;60387;49.994;14.660;2023-06-22T04:23:57;0.20;;;0.20;;
71914;SDS011;60387;49.994;14.660;2023-06-22T04:26:30;0.40;;;0.30;;
71914;SDS011;60387;49.994;14.660;2023-06-22T04:29:04;1.10;;;0.40;;
71914;SDS011;60387;49.994;14.660;2023-06-22T04:31:37;0.70;;;0.37;;
71914;SDS011;60387;49.994;14.660;2023-06-22T04:34:11;0.88;;;0.30;;
71914;SDS011;60387;49.994;14.660;2023-06-22T04:36:44;0.33;;;0.23;;
71914;SDS011;60387;49.994;14.660;2023-06-22T04:39:17;0.43;;;0.23;;
71914;SDS011;60387;49.994;14.660;2023-06-22T04:41:50;0.50;;;0.30;;
71914;SDS011;60387;49.994;14.660;2023-06-22T04:44:24;0.43;;;0.40;;
71914;SDS011;60387;49.994;14.660;2023-06-22T04:46:57;0.40;;;0.30;;
71914;SDS011;60387;49.994;14.660;2023-06-22T04:49:32;1.58;;;0.80;;
71914;SDS011;60387;49.994;14.660;2023-06-22T04:52:06;0.53;;;0.40;;
71914;SDS011;60387;49.994;14.660;2023-06-22T04:54:40;0.77;;;0.60;;
71914;SDS011;60387;49.994;14.660;2023-06-22T04:57:14;0.80;;;0.60;;
71914;SDS011;60387;49.994;14.660;2023-06-22T04:59:47;1.00;;;0.50;;
71914;SDS011;60387;49.994;14.660;2023-06-22T05:02:20;0.80;;;0.40;;
71914;SDS011;60387;49.994;14.660;2023-06-22T05:04:54;0.40;;;0.30;;
71914;SDS011;60387;49.994;14.660;2023-06-22T05:07:27;0.80;;;0.63;;
71914;SDS011;60387;49.994;14.660;2023-06-22T05:10:03;0.30;;;0.30;;
71914;SDS011;60387;49.994;14.660;2023-06-22T05:12:36;0.80;;;0.40;;
71914;SDS011;60387;49.994;14.660;2023-06-22T05:15:10;1.27;;;0.43;;
71914;SDS011;60387;49.994;14.660;2023-06-22T05:17:43;0.80;;;0.50;;
71914;SDS011;60387;49.994;14.660;2023-06-22T05:20:17;0.37;;;0.30;;
71914;SDS011;60387;49.994;14.660;2023-06-22T05:22:50;1.00;;;0.43;;
71914;SDS011;60387;49.994;14.660;2023-06-22T05:25:23;0.50;;;0.30;;
71914;SDS011;60387;49.994;14.660;2023-06-22T05:27:57;0.50;;;0.37;;
71914;SDS011;60387;49.994;14.660;2023-06-22T05:30:30;0.60;;;0.40;;
71914;SDS011;60387;49.994;14.660;2023-06-22T05:33:03;0.70;;;0.40;;
71914;SDS011;60387;49.994;14.660;2023-06-22T05:35:37;0.53;;;0.40;;
71914;SDS011;60387;49.994;14.660;2023-06-22T05:38:10;1.50;;;0.30;;
71914;SDS011;60387;49.994;14.660;2023-06-22T05:40:43;0.83;;;0.83;;
71914;SDS011;60387;49.994;14.660;2023-06-22T05:43:16;0.80;;;0.57;;
71914;SDS011;60387;49.994;14.660;2023-06-22T05:45:50;1.07;;;0.50;;
71914;SDS011;60387;49.994;14.660;2023-06-22T05:48:23;0.70;;;0.37;;
71914;SDS011;60387;49.994;14.660;2023-06-22T05:50:57;0.90;;;0.60;;
71914;SDS011;60387;49.994;14.660;2023-06-22T05:53:30;0.80;;;0.40;;
71914;SDS011;60387;49.994;14.660;2023-06-22T05:56:03;0.70;;;0.40;;
71914;SDS011;60387;49.994;14.660;2023-06-22T05:58:37;0.80;;;0.40;;
71914;SDS011;60387;49.994;14.660;2023-06-22T06:01:10;0.63;;;0.40;;
71914;SDS011;60387;49.994;14.660;2023-06-22T06:03:43;0.40;;;0.30;;
71914;SDS011;60387;49.994;14.660;2023-06-22T06:06:16;0.80;;;0.40;;
71914;SDS011;60387;49.994;14.660;2023-06-22T06:08:50;0.60;;;0.43;;
71914;SDS011;60387;49.994;14.660;2023-06-22T06:11:23;1.27;;;0.97;;
71914;SDS011;60387;49.994;14.660;2023-06-22T06:13:56;0.55;;;0.40;;
71914;SDS011;60387;49.994;14.660;2023-06-22T06:16:30;0.50;;;0.37;;
71914;SDS011;60387;49.994;14.660;2023-06-22T06:19:03;0.60;;;0.30;;
71914;SDS011;60387;49.994;14.660;2023-06-22T06:21:36;0.60;;;0.40;;
71914;SDS011;60387;49.994;14.660;2023-06-22T06:24:10;1.00;;;0.80;;
71914;SDS011;60387;49.994;14.660;2023-06-22T06:26:44;1.95;;;0.60;;
71914;SDS011;60387;49.994;14.660;2023-06-22T06:29:17;1.00;;;0.73;;
71914;SDS011;60387;49.994;14.660;2023-06-22T06:31:50;1.00;;;0.70;;
71914;SDS011;60387;49.994;14.660;2023-06-22T06:34:23;0.80;;;0.40;;
71914;SDS011;60387;49.994;14.660;2023-06-22T06:36:57;0.60;;;0.40;;
71914;SDS011;60387;49.994;14.660;2023-06-22T06:39:30;0.73;;;0.53;;
71914;SDS011;60387;49.994;14.660;2023-06-22T06:42:04;2.13;;;0.60;;
71914;SDS011;60387;49.994;14.660;2023-06-22T06:44:38;1.80;;;0.97;;
71914;SDS011;60387;49.994;14.660;2023-06-22T06:47:11;1.10;;;0.60;;
71914;SDS011;60387;49.994;14.660;2023-06-22T06:49:44;0.70;;;0.50;;
71914;SDS011;60387;49.994;14.660;2023-06-22T06:52:17;0.87;;;0.50;;
71914;SDS011;60387;49.994;14.660;2023-06-22T06:54:51;0.73;;;0.53;;
71914;SDS011;60387;49.994;14.660;2023-06-22T06:57:24;0.80;;;0.57;;
71914;SDS011;60387;49.994;14.660;2023-06-22T06:59:57;1.27;;;0.70;;
71914;SDS011;60387;49.994;14.660;2023-06-22T07:02:31;2.00;;;1.33;;
71914;SDS011;60387;49.994;14.660;2023-06-22T07:05:04;0.87;;;0.60;;
71914;SDS011;60387;49.994;14.660;2023-06-22T07:07:37;1.60;;;0.80;;
71914;SDS011;60387;49.994;14.660;2023-06-22T07:10:11;1.80;;;1.27;;
71914;SDS011;60387;49.994;14.660;2023-06-22T07:12:44;1.23;;;0.80;;
71914;SDS011;60387;49.994;14.660;2023-06-22T07:15:17;1.10;;;0.53;;
71914;SDS011;60387;49.994;14.660;2023-06-22T07:17:51;1.30;;;0.80;;
71914;SDS011;60387;49.994;14.660;2023-06-22T07:20:24;1.00;;;0.80;;
71914;SDS011;60387;49.994;14.660;2023-06-22T07:22:57;2.00;;;1.07;;
71914;SDS011;60387;49.994;14.660;2023-06-22T07:25:31;1.37;;;0.93;;
71914;SDS011;60387;49.994;14.660;2023-06-22T07:28:04;1.73;;;0.97;;
71914;SDS011;60387;49.994;14.660;2023-06-22T07:30:39;2.05;;;0.82;;
71914;SDS011;60387;49.994;14.660;2023-06-22T07:33:12;0.83;;;0.60;;
71914;SDS011;60387;49.994;14.660;2023-06-22T07:35:45;1.73;;;0.73;;
71914;SDS011;60387;49.994;14.660;2023-06-22T07:38:18;1.00;;;0.50;;
71914;SDS011;60387;49.994;14.660;2023-06-22T07:40:52;0.80;;;0.50;;
71914;SDS011;60387;49.994;14.660;2023-06-22T07:43:25;2.70;;;0.93;;
71914;SDS011;60387;49.994;14.660;2023-06-22T07:45:58;3.07;;;0.67;;
71914;SDS011;60387;49.994;14.660;2023-06-22T07:48:31;1.63;;;0.70;;
71914;SDS011;60387;49.994;14.660;2023-06-22T07:51:05;2.00;;;0.83;;
71914;SDS011;60387;49.994;14.660;2023-06-22T07:53:41;1.50;;;0.60;;
71914;SDS011;60387;49.994;14.660;2023-06-22T07:56:15;1.42;;;0.80;;
71914;SDS011;60387;49.994;14.660;2023-06-22T07:58:48;1.20;;;0.80;;
71914;SDS011;60387;49.994;14.660;2023-06-22T08:01:22;2.37;;;1.03;;
71914;SDS011;60387;49.994;14.660;2023-06-22T08:03:55;2.13;;;1.03;;
71914;SDS011;60387;49.994;14.660;2023-06-22T08:06:29;0.97;;;0.60;;
71914;SDS011;60387;49.994;14.660;2023-06-22T08:09:03;1.15;;;0.75;;
71914;SDS011;60387;49.994;14.660;2023-06-22T08:11:36;1.20;;;0.80;;
71914;SDS011;60387;49.994;14.660;2023-06-22T08:14:10;1.00;;;0.60;;
71914;SDS011;60387;49.994;14.660;2023-06-22T08:16:43;1.40;;;0.93;;
71914;SDS011;60387;49.994;14.660;2023-06-22T08:19:16;1.10;;;0.60;;
71914;SDS011;60387;49.994;14.660;2023-06-22T08:21:50;1.63;;;0.77;;
71914;SDS011;60387;49.994;14.660;2023-06-22T08:24:23;1.40;;;0.87;;
71914;SDS011;60387;49.994;14.660;2023-06-22T08:26:56;1.33;;;0.73;;
71914;SDS011;60387;49.994;14.660;2023-06-22T08:29:29;0.90;;;0.60;;
71914;SDS011;60387;49.994;14.660;2023-06-22T08:32:03;1.83;;;1.00;;
71914;SDS011;60387;49.994;14.660;2023-06-22T08:34:36;0.70;;;0.50;;
71914;SDS011;60387;49.994;14.660;2023-06-22T08:37:09;1.23;;;0.70;;
71914;SDS011;60387;49.994;14.660;2023-06-22T08:39:43;1.73;;;0.98;;
71914;SDS011;60387;49.994;14.660;2023-06-22T08:42:16;1.47;;;0.90;;
71914;SDS011;60387;49.994;14.660;2023-06-22T08:44:50;0.77;;;0.47;;
71914;SDS011;60387;49.994;14.660;2023-06-22T08:47:23;1.87;;;0.50;;
71914;SDS011;60387;49.994;14.660;2023-06-22T08:49:56;1.33;;;0.60;;
71914;SDS011;60387;49.994;14.660;2023-06-22T08:52:30;1.00;;;0.70;;
71914;SDS011;60387;49.994;14.660;2023-06-22T08:55:04;1.27;;;0.80;;
71914;SDS011;60387;49.994;14.660;2023-06-22T08:57:37;1.90;;;0.87;;
71914;SDS011;60387;49.994;14.660;2023-06-22T09:00:11;1.50;;;1.10;;
71914;SDS011;60387;49.994;14.660;2023-06-22T09:02:44;2.30;;;1.30;;
71914;SDS011;60387;49.994;14.660;2023-06-22T09:05:18;1.42;;;0.80;;
71914;SDS011;60387;49.994;14.660;2023-06-22T09:07:52;1.53;;;0.87;;
71914;SDS011;60387;49.994;14.660;2023-06-22T09:10:25;1.30;;;0.87;;
71914;SDS011;60387;49.994;14.660;2023-06-22T09:12:58;0.90;;;0.43;;
71914;SDS011;60387;49.994;14.660;2023-06-22T09:15:32;0.83;;;0.50;;
71914;SDS011;60387;49.994;14.660;2023-06-22T09:18:05;1.23;;;0.60;;
71914;SDS011;60387;49.994;14.660;2023-06-22T09:20:38;1.03;;;0.73;;
71914;SDS011;60387;49.994;14.660;2023-06-22T09:23:12;2.60;;;1.80;;
71914;SDS011;60387;49.994;14.660;2023-06-22T09:25:45;2.10;;;1.07;;
71914;SDS011;60387;49.994;14.660;2023-06-22T09:28:18;1.00;;;0.80;;
71914;SDS011;60387;49.994;14.660;2023-06-22T09:30:51;1.70;;;0.87;;
71914;SDS011;60387;49.994;14.660;2023-06-22T09:33:25;1.27;;;0.60;;
71914;SDS011;60387;49.994;14.660;2023-06-22T09:35:59;1.50;;;0.80;;
71914;SDS011;60387;49.994;14.660;2023-06-22T09:38:38;0.70;;;0.50;;
71914;SDS011;60387;49.994;14.660;2023-06-22T09:41:12;2.08;;;1.00;;
71914;SDS011;60387;49.994;14.660;2023-06-22T09:43:45;0.83;;;0.50;;
71914;SDS011;60387;49.994;14.660;2023-06-22T09:46:18;3.70;;;1.30;;
71914;SDS011;60387;49.994;14.660;2023-06-22T09:48:51;1.60;;;0.73;;
71914;SDS011;60387;49.994;14.660;2023-06-22T09:51:25;1.43;;;0.67;;
71914;SDS011;60387;49.994;14.660;2023-06-22T09:53:58;1.20;;;0.80;;
71914;SDS011;60387;49.994;14.660;2023-06-22T09:56:31;1.00;;;0.60;;
71914;SDS011;60387;49.994;14.660;2023-06-22T09:59:04;0.80;;;0.50;;
71914;SDS011;60387;49.994;14.660;2023-06-22T10:01:38;1.97;;;0.77;;
71914;SDS011;60387;49.994;14.660;2023-06-22T10:04:11;1.13;;;0.87;;
71914;SDS011;60387;49.994;14.660;2023-06-22T10:06:47;0.70;;;0.50;;
71914;SDS011;60387;49.994;14.660;2023-06-22T10:09:20;1.50;;;1.23;;
71914;SDS011;60387;49.994;14.660;2023-06-22T10:11:54;1.67;;;0.67;;
71914;SDS011;60387;49.994;14.660;2023-06-22T10:14:27;1.17;;;0.50;;
71914;SDS011;60387;49.994;14.660;2023-06-22T10:17:00;1.20;;;0.70;;
71914;SDS011;60387;49.994;14.660;2023-06-22T10:19:33;0.77;;;0.53;;
71914;SDS011;60387;49.994;14.660;2023-06-22T10:22:07;2.03;;;0.80;;
71914;SDS011;60387;49.994;14.660;2023-06-22T10:24:40;1.43;;;0.80;;
71914;SDS011;60387;49.994;14.660;2023-06-22T10:27:13;1.33;;;0.77;;
71914;SDS011;60387;49.994;14.660;2023-06-22T10:29:46;2.40;;;1.00;;
71914;SDS011;60387;49.994;14.660;2023-06-22T10:32:20;1.93;;;0.90;;
71914;SDS011;60387;49.994;14.660;2023-06-22T10:34:53;0.83;;;0.43;;
71914;SDS011;60387;49.994;14.660;2023-06-22T10:37:27;1.63;;;1.03;;
71914;SDS011;60387;49.994;14.660;2023-06-22T10:40:00;1.20;;;0.80;;
71914;SDS011;60387;49.994;14.660;2023-06-22T10:42:33;1.10;;;0.87;;
71914;SDS011;60387;49.994;14.660;2023-06-22T10:45:07;1.07;;;0.80;;
71914;SDS011;60387;49.994;14.660;2023-06-22T10:47:41;4.80;;;0.93;;
71914;SDS011;60387;49.994;14.660;2023-06-22T10:50:15;0.90;;;0.63;;
71914;SDS011;60387;49.994;14.660;2023-06-22T10:52:48;1.90;;;0.80;;
71914;SDS011;60387;49.994;14.660;2023-06-22T10:55:21;1.33;;;0.80;;
71914;SDS011;60387;49.994;14.660;2023-06-22T10:57:54;1.33;;;0.90;;
71914;SDS011;60387;49.994;14.660;2023-06-22T11:00:28;0.87;;;0.63;;
71914;SDS011;60387;49.994;14.660;2023-06-22T11:03:01;1.50;;;0.83;;
71914;SDS011;60387;49.994;14.660;2023-06-22T11:05:34;1.30;;;0.83;;
71914;SDS011;60387;49.994;14.660;2023-06-22T11:08:07;1.37;;;0.77;;
71914;SDS011;60387;49.994;14.660;2023-06-22T11:10:41;1.10;;;0.73;;
71914;SDS011;60387;49.994;14.660;2023-06-22T11:13:14;0.90;;;0.67;;
71914;SDS011;60387;49.994;14.660;2023-06-22T11:15:47;1.20;;;0.80;;
71914;SDS011;60387;49.994;14.660;2023-06-22T11:18:21;2.00;;;1.53;;
71914;SDS011;60387;49.994;14.660;2023-06-22T11:20:54;0.93;;;0.73;;
71914;SDS011;60387;49.994;14.660;2023-06-22T11:23:27;1.20;;;0.80;;
71914;SDS011;60387;49.994;14.660;2023-06-22T11:26:00;1.20;;;0.80;;
71914;SDS011;60387;49.994;14.660;2023-06-22T11:28:34;1.17;;;0.70;;
71914;SDS011;60387;49.994;14.660;2023-06-22T11:31:07;1.70;;;1.00;;
71914;SDS011;60387;49.994;14.660;2023-06-22T11:33:40;1.00;;;0.73;;
71914;SDS011;60387;49.994;14.660;2023-06-22T11:36:14;11.10;;;1.03;;
71914;SDS011;60387;49.994;14.660;2023-06-22T11:38:48;0.70;;;0.50;;
71914;SDS011;60387;49.994;14.660;2023-06-22T11:41:21;1.07;;;0.80;;
71914;SDS011;60387;49.994;14.660;2023-06-22T11:43:54;0.97;;;0.77;;
71914;SDS011;60387;49.994;14.660;2023-06-22T11:46:28;1.53;;;0.83;;
71914;SDS011;60387;49.994;14.660;2023-06-22T11:49:01;1.27;;;0.90;;
71914;SDS011;60387;49.994;14.660;2023-06-22T11:51:34;0.80;;;0.70;;
71914;SDS011;60387;49.994;14.660;2023-06-22T11:54:08;5.37;;;1.87;;
71914;SDS011;60387;49.994;14.660;2023-06-22T11:56:41;2.03;;;1.20;;
71914;SDS011;60387;49.994;14.660;2023-06-22T11:59:14;1.63;;;0.77;;
71914;SDS011;60387;49.994;14.660;2023-06-22T12:01:47;1.90;;;0.97;;
71914;SDS011;60387;49.994;14.660;2023-06-22T12:04:21;1.10;;;0.80;;
71914;SDS011;60387;49.994;14.660;2023-06-22T12:06:54;2.70;;;0.77;;
71914;SDS011;60387;49.994;14.660;2023-06-22T12:09:27;1.60;;;0.90;;
71914;SDS011;60387;49.994;14.660;2023-06-22T12:12:01;1.63;;;1.20;;
71914;SDS011;60387;49.994;14.660;2023-06-22T12:14:34;1.10;;;0.80;;
71914;SDS011;60387;49.994;14.660;2023-06-22T12:17:07;1.73;;;0.93;;
71914;SDS011;60387;49.994;14.660;2023-06-22T12:19:40;1.63;;;0.80;;
71914;SDS011;60387;49.994;14.660;2023-06-22T12:22:14;1.60;;;0.93;;
71914;SDS011;60387;49.994;14.660;2023-06-22T12:24:47;1.40;;;0.73;;
71914;SDS011;60387;49.994;14.660;2023-06-22T12:27:20;0.70;;;0.43;;
71914;SDS011;60387;49.994;14.660;2023-06-22T12:29:54;1.43;;;0.90;;
71914;SDS011;60387;49.994;14.660;2023-06-22T12:32:27;1.63;;;1.13;;
71914;SDS011;60387;49.994;14.660;2023-06-22T12:35:00;1.30;;;0.77;;
71914;SDS011;60387;49.994;14.660;2023-06-22T12:37:33;2.30;;;0.93;;
71914;SDS011;60387;49.994;14.660;2023-06-22T12:40:07;1.00;;;0.73;;
71914;SDS011;60387;49.994;14.660;2023-06-22T12:42:40;3.08;;;0.98;;
71914;SDS011;60387;49.994;14.660;2023-06-22T12:45:14;1.67;;;1.30;;
71914;SDS011;60387;49.994;14.660;2023-06-22T12:47:47;1.00;;;0.50;;
71914;SDS011;60387;49.994;14.660;2023-06-22T12:50:20;1.80;;;0.80;;
71914;SDS011;60387;49.994;14.660;2023-06-22T12:52:53;2.60;;;0.73;;
71914;SDS011;60387;49.994;14.660;2023-06-22T12:55:27;0.90;;;0.60;;
71914;SDS011;60387;49.994;14.660;2023-06-22T12:58:00;2.10;;;1.30;;
71914;SDS011;60387;49.994;14.660;2023-06-22T13:00:33;2.20;;;0.80;;
71914;SDS011;60387;49.994;14.660;2023-06-22T13:03:06;1.07;;;0.80;;
71914;SDS011;60387;49.994;14.660;2023-06-22T13:05:40;0.90;;;0.70;;
71914;SDS011;60387;49.994;14.660;2023-06-22T13:08:13;1.30;;;0.70;;
71914;SDS011;60387;49.994;14.660;2023-06-22T13:10:46;1.90;;;0.90;;
71914;SDS011;60387;49.994;14.660;2023-06-22T13:13:20;1.00;;;0.60;;
71914;SDS011;60387;49.994;14.660;2023-06-22T13:15:53;0.70;;;0.50;;
71914;SDS011;60387;49.994;14.660;2023-06-22T13:18:26;1.37;;;0.97;;
71914;SDS011;60387;49.994;14.660;2023-06-22T13:20:59;1.40;;;0.97;;
71914;SDS011;60387;49.994;14.660;2023-06-22T13:23:33;1.63;;;0.93;;
71914;SDS011;60387;49.994;14.660;2023-06-22T13:26:08;1.10;;;0.63;;
71914;SDS011;60387;49.994;14.660;2023-06-22T13:28:42;1.00;;;0.63;;
71914;SDS011;60387;49.994;14.660;2023-06-22T13:31:15;0.70;;;0.50;;
71914;SDS011;60387;49.994;14.660;2023-06-22T13:33:48;0.50;;;0.37;;
71914;SDS011;60387;49.994;14.660;2023-06-22T13:36:21;1.43;;;0.97;;
71914;SDS011;60387;49.994;14.660;2023-06-22T13:38:55;1.90;;;0.90;;
71914;SDS011;60387;49.994;14.660;2023-06-22T13:41:28;1.30;;;0.90;;
71914;SDS011;60387;49.994;14.660;2023-06-22T13:44:01;1.90;;;1.40;;
71914;SDS011;60387;49.994;14.660;2023-06-22T13:46:35;1.83;;;1.07;;
71914;SDS011;60387;49.994;14.660;2023-06-22T13:49:08;0.83;;;0.57;;
71914;SDS011;60387;49.994;14.660;2023-06-22T13:51:41;1.00;;;0.75;;
71914;SDS011;60387;49.994;14.660;2023-06-22T13:54:14;1.23;;;0.80;;
71914;SDS011;60387;49.994;14.660;2023-06-22T13:56:48;1.90;;;1.00;;
71914;SDS011;60387;49.994;14.660;2023-06-22T13:59:22;0.60;;;0.47;;
71914;SDS011;60387;49.994;14.660;2023-06-22T14:01:55;1.47;;;0.80;;
71914;SDS011;60387;49.994;14.660;2023-06-22T14:04:28;1.03;;;0.60;;
71914;SDS011;60387;49.994;14.660;2023-06-22T14:07:02;0.90;;;0.63;;
71914;SDS011;60387;49.994;14.660;2023-06-22T14:09:35;0.70;;;0.53;;
71914;SDS011;60387;49.994;14.660;2023-06-22T14:12:09;1.20;;;0.80;;
71914;SDS011;60387;49.994;14.660;2023-06-22T14:14:43;1.38;;;0.77;;
71914;SDS011;60387;49.994;14.660;2023-06-22T14:17:16;1.30;;;0.73;;
71914;SDS011;60387;49.994;14.660;2023-06-22T14:19:49;0.73;;;0.60;;
71914;SDS011;60387;49.994;14.660;2023-06-22T14:22:23;1.37;;;1.03;;
71914;SDS011;60387;49.994;14.660;2023-06-22T14:24:56;1.63;;;0.80;;
71914;SDS011;60387;49.994;14.660;2023-06-22T14:27:29;1.30;;;1.00;;
71914;SDS011;60387;49.994;14.660;2023-06-22T14:30:03;0.90;;;0.50;;
71914;SDS011;60387;49.994;14.660;2023-06-22T14:32:36;1.13;;;0.73;;
71914;SDS011;60387;49.994;14.660;2023-06-22T14:35:10;1.33;;;0.90;;
71914;SDS011;60387;49.994;14.660;2023-06-22T14:37:43;1.67;;;0.90;;
71914;SDS011;60387;49.994;14.660;2023-06-22T14:40:16;1.00;;;0.60;;
71914;SDS011;60387;49.994;14.660;2023-06-22T14:42:50;0.77;;;0.53;;
71914;SDS011;60387;49.994;14.660;2023-06-22T14:45:23;1.27;;;0.70;;
71914;SDS011;60387;49.994;14.660;2023-06-22T14:47:56;1.03;;;0.50;;
71914;SDS011;60387;49.994;14.660;2023-06-22T14:50:30;0.70;;;0.50;;
71914;SDS011;60387;49.994;14.660;2023-06-22T14:53:03;0.90;;;0.70;;
71914;SDS011;60387;49.994;14.660;2023-06-22T14:55:36;0.97;;;0.50;;
71914;SDS011;60387;49.994;14.660;2023-06-22T14:58:09;1.23;;;0.90;;
71914;SDS011;60387;49.994;14.660;2023-06-22T15:00:43;1.50;;;1.27;;
71914;SDS011;60387;49.994;14.660;2023-06-22T15:03:16;1.40;;;0.80;;
71914;SDS011;60387;49.994;14.660;2023-06-22T15:05:49;1.93;;;1.00;;
71914;SDS011;60387;49.994;14.660;2023-06-22T15:08:23;0.70;;;0.60;;
71914;SDS011;60387;49.994;14.660;2023-06-22T15:10:59;1.67;;;0.93;;
71914;SDS011;60387;49.994;14.660;2023-06-22T15:13:33;2.15;;;0.90;;
71914;SDS011;60387;49.994;14.660;2023-06-22T15:16:07;1.58;;;0.85;;
71914;SDS011;60387;49.994;14.660;2023-06-22T15:18:41;1.00;;;0.60;;